sensor_id;sensor_type;location;lat;lon;timestamp;pressure;altitude;pressure_sealevel;temperature;humidity
53246;BME280;39569;51.090;-1.786;2024-03-02T00:00:52;98190.63;;;12.38;52.66
53246;BME280;39569;51.090;-1.786;2024-03-02T00:03:19;98190.84;;;12.53;51.66
53246;BME280;39569;51.090;-1.786;2024-03-02T00:05:50;98179.84;;;12.76;52.03
53246;BME280;39569;51.090;-1.786;2024-03-02T00:08:23;98182.47;;;12.28;53.30
53246;BME280;39569;51.090;-1.786;2024-03-02T00:10:50;98186.31;;;12.37;52.81
53246;BME280;39569;51.090;-1.786;2024-03-02T00:13:20;98189.41;;;12.45;53.22
53246;BME280;39569;51.090;-1.786;2024-03-02T00:15:48;98181.47;;;12.34;53.22
53246;BME280;39569;51.090;-1.786;2024-03-02T00:18:19;98185.66;;;12.46;53.72
53246;BME280;39569;51.090;-1.786;2024-03-02T00:20:46;98180.34;;;12.30;53.57
53246;BME280;39569;51.090;-1.786;2024-03-02T00:23:16;98176.56;;;12.69;53.39
53246;BME280;39569;51.090;-1.786;2024-03-02T00:25:47;98182.47;;;12.71;52.62
53246;BME280;39569;51.090;-1.786;2024-03-02T00:28:17;98191.44;;;12.81;53.00
53246;BME280;39569;51.090;-1.786;2024-03-02T00:30:58;98188.44;;;12.78;53.17
53246;BME280;39569;51.090;-1.786;2024-03-02T00:33:27;98183.25;;;12.93;52.74
53246;BME280;39569;51.090;-1.786;2024-03-02T00:35:54;98183.22;;;12.45;53.79
53246;BME280;39569;51.090;-1.786;2024-03-02T00:38:23;98173.38;;;12.72;53.78
53246;BME280;39569;51.090;-1.786;2024-03-02T00:40:50;98175.19;;;12.66;53.05
53246;BME280;39569;51.090;-1.786;2024-03-02T00:43:45;98175.91;;;13.05;52.76
53246;BME280;39569;51.090;-1.786;2024-03-02T00:46:13;98176.75;;;12.41;53.38
53246;BME280;39569;51.090;-1.786;2024-03-02T00:48:48;98174.00;;;12.79;52.92
53246;BME280;39569;51.090;-1.786;2024-03-02T00:51:15;98172.75;;;12.87;52.76
53246;BME280;39569;51.090;-1.786;2024-03-02T00:53:43;98170.44;;;13.22;52.43
53246;BME280;39569;51.090;-1.786;2024-03-02T00:56:11;98165.50;;;13.40;52.03
53246;BME280;39569;51.090;-1.786;2024-03-02T00:58:39;98168.78;;;13.16;51.87
53246;BME280;39569;51.090;-1.786;2024-03-02T01:01:06;98163.22;;;13.22;51.92
53246;BME280;39569;51.090;-1.786;2024-03-02T01:03:33;98163.69;;;13.46;51.84
53246;BME280;39569;51.090;-1.786;2024-03-02T01:06:00;98169.25;;;13.66;51.39
53246;BME280;39569;51.090;-1.786;2024-03-02T01:08:27;98169.56;;;13.74;51.06
53246;BME280;39569;51.090;-1.786;2024-03-02T01:10:55;98169.66;;;13.85;51.09
53246;BME280;39569;51.090;-1.786;2024-03-02T01:13:22;98159.94;;;12.45;53.83
53246;BME280;39569;51.090;-1.786;2024-03-02T01:15:49;98170.22;;;11.60;56.07
53246;BME280;39569;51.090;-1.786;2024-03-02T01:18:16;98166.81;;;11.81;56.06
53246;BME280;39569;51.090;-1.786;2024-03-02T01:20:43;98155.38;;;12.24;55.19
53246;BME280;39569;51.090;-1.786;2024-03-02T01:23:10;98149.53;;;12.70;53.93
53246;BME280;39569;51.090;-1.786;2024-03-02T01:25:36;98152.97;;;12.93;53.07
53246;BME280;39569;51.090;-1.786;2024-03-02T01:28:05;98156.13;;;12.63;53.68
53246;BME280;39569;51.090;-1.786;2024-03-02T01:30:32;98156.72;;;12.43;54.25
53246;BME280;39569;51.090;-1.786;2024-03-02T01:32:59;98161.50;;;12.41;54.09
53246;BME280;39569;51.090;-1.786;2024-03-02T01:35:25;98169.34;;;12.48;53.82
53246;BME280;39569;51.090;-1.786;2024-03-02T01:37:53;98167.72;;;12.68;54.43
53246;BME280;39569;51.090;-1.786;2024-03-02T01:40:19;98173.94;;;11.43;55.86
53246;BME280;39569;51.090;-1.786;2024-03-02T01:42:46;98188.59;;;10.96;56.59
53246;BME280;39569;51.090;-1.786;2024-03-02T01:45:15;98189.88;;;11.21;56.59
53246;BME280;39569;51.090;-1.786;2024-03-02T01:47:41;98187.31;;;10.70;56.46
53246;BME280;39569;51.090;-1.786;2024-03-02T01:50:09;98186.91;;;10.78;57.11
53246;BME280;39569;51.090;-1.786;2024-03-02T01:52:38;98189.09;;;10.53;57.19
53246;BME280;39569;51.090;-1.786;2024-03-02T01:55:06;98169.38;;;11.10;56.04
53246;BME280;39569;51.090;-1.786;2024-03-02T01:57:33;98151.31;;;10.72;56.62
53246;BME280;39569;51.090;-1.786;2024-03-02T02:00:00;98146.69;;;11.13;55.62
53246;BME280;39569;51.090;-1.786;2024-03-02T02:02:29;98122.25;;;11.87;53.85
53246;BME280;39569;51.090;-1.786;2024-03-02T02:04:56;98113.03;;;12.16;52.50
53246;BME280;39569;51.090;-1.786;2024-03-02T02:07:22;98110.78;;;12.51;51.90
53246;BME280;39569;51.090;-1.786;2024-03-02T02:09:49;98110.50;;;12.53;51.91
53246;BME280;39569;51.090;-1.786;2024-03-02T02:12:16;98104.22;;;12.42;51.95
53246;BME280;39569;51.090;-1.786;2024-03-02T02:14:47;98115.22;;;12.67;51.97
53246;BME280;39569;51.090;-1.786;2024-03-02T02:17:15;98104.28;;;12.74;51.36
53246;BME280;39569;51.090;-1.786;2024-03-02T02:19:43;98088.91;;;12.86;51.64
53246;BME280;39569;51.090;-1.786;2024-03-02T02:22:11;98093.03;;;12.99;51.52
53246;BME280;39569;51.090;-1.786;2024-03-02T02:24:40;98084.44;;;13.23;50.76
53246;BME280;39569;51.090;-1.786;2024-03-02T02:27:07;98064.75;;;13.13;50.81
53246;BME280;39569;51.090;-1.786;2024-03-02T02:29:34;98060.59;;;12.95;51.08
53246;BME280;39569;51.090;-1.786;2024-03-02T02:32:00;98044.09;;;13.03;51.21
53246;BME280;39569;51.090;-1.786;2024-03-02T02:34:27;98051.44;;;12.91;51.42
53246;BME280;39569;51.090;-1.786;2024-03-02T02:36:54;98043.63;;;13.16;50.86
53246;BME280;39569;51.090;-1.786;2024-03-02T02:39:23;98031.06;;;12.90;51.66
53246;BME280;39569;51.090;-1.786;2024-03-02T02:41:49;98020.72;;;12.72;51.29
53246;BME280;39569;51.090;-1.786;2024-03-02T02:44:16;98012.72;;;13.04;50.84
53246;BME280;39569;51.090;-1.786;2024-03-02T02:46:43;98001.25;;;12.81;51.36
53246;BME280;39569;51.090;-1.786;2024-03-02T02:49:09;98000.09;;;12.72;52.13
53246;BME280;39569;51.090;-1.786;2024-03-02T02:51:36;97989.63;;;12.39;53.03
53246;BME280;39569;51.090;-1.786;2024-03-02T02:54:03;97985.41;;;12.75;51.99
53246;BME280;39569;51.090;-1.786;2024-03-02T02:56:31;97971.22;;;13.06;52.16
53246;BME280;39569;51.090;-1.786;2024-03-02T02:58:58;97970.94;;;12.76;52.42
53246;BME280;39569;51.090;-1.786;2024-03-02T03:01:25;97969.88;;;12.45;53.04
53246;BME280;39569;51.090;-1.786;2024-03-02T03:03:52;97962.78;;;12.61;53.01
53246;BME280;39569;51.090;-1.786;2024-03-02T03:06:19;97940.56;;;12.29;53.83
53246;BME280;39569;51.090;-1.786;2024-03-02T03:08:45;97929.88;;;12.34;53.60
53246;BME280;39569;51.090;-1.786;2024-03-02T03:11:12;97918.16;;;12.08;54.80
53246;BME280;39569;51.090;-1.786;2024-03-02T03:13:41;97916.88;;;12.16;55.12
53246;BME280;39569;51.090;-1.786;2024-03-02T03:16:08;97907.03;;;11.95;56.20
53246;BME280;39569;51.090;-1.786;2024-03-02T03:18:35;97914.84;;;12.28;55.34
53246;BME280;39569;51.090;-1.786;2024-03-02T03:21:01;97883.88;;;11.57;57.48
53246;BME280;39569;51.090;-1.786;2024-03-02T03:23:28;97876.09;;;11.55;57.72
53246;BME280;39569;51.090;-1.786;2024-03-02T03:25:55;97884.06;;;11.99;57.70
53246;BME280;39569;51.090;-1.786;2024-03-02T03:28:21;97860.53;;;12.27;56.95
53246;BME280;39569;51.090;-1.786;2024-03-02T03:30:49;97857.59;;;12.65;55.96
53246;BME280;39569;51.090;-1.786;2024-03-02T03:33:16;97903.44;;;12.74;55.32
53246;BME280;39569;51.090;-1.786;2024-03-02T03:35:43;97920.16;;;12.23;55.97
53246;BME280;39569;51.090;-1.786;2024-03-02T03:38:10;97899.31;;;11.98;55.31
53246;BME280;39569;51.090;-1.786;2024-03-02T03:40:37;97918.97;;;10.84;56.88
53246;BME280;39569;51.090;-1.786;2024-03-02T03:43:04;97920.16;;;11.10;56.33
53246;BME280;39569;51.090;-1.786;2024-03-02T03:45:30;97936.78;;;10.45;57.93
53246;BME280;39569;51.090;-1.786;2024-03-02T03:47:58;97931.75;;;10.82;56.23
53246;BME280;39569;51.090;-1.786;2024-03-02T03:50:25;97924.31;;;10.84;55.24
53246;BME280;39569;51.090;-1.786;2024-03-02T03:52:52;97921.25;;;10.92;55.02
53246;BME280;39569;51.090;-1.786;2024-03-02T03:55:19;97903.25;;;11.26;53.76
53246;BME280;39569;51.090;-1.786;2024-03-02T03:57:45;97902.56;;;11.14;54.05
53246;BME280;39569;51.090;-1.786;2024-03-02T04:00:13;97898.41;;;11.23;54.78
53246;BME280;39569;51.090;-1.786;2024-03-02T04:02:40;97888.53;;;11.45;53.66
53246;BME280;39569;51.090;-1.786;2024-03-02T04:05:08;97889.78;;;11.80;53.62
53246;BME280;39569;51.090;-1.786;2024-03-02T04:07:36;97879.16;;;11.91;52.41
53246;BME280;39569;51.090;-1.786;2024-03-02T04:10:07;97876.66;;;12.06;53.13
53246;BME280;39569;51.090;-1.786;2024-03-02T04:12:35;97880.34;;;12.31;52.03
53246;BME280;39569;51.090;-1.786;2024-03-02T04:15:03;97868.75;;;12.52;51.76
53246;BME280;39569;51.090;-1.786;2024-03-02T04:17:32;97860.41;;;12.44;51.54
53246;BME280;39569;51.090;-1.786;2024-03-02T04:19:59;97854.94;;;12.34;51.82
53246;BME280;39569;51.090;-1.786;2024-03-02T04:22:27;97858.41;;;12.66;51.34
53246;BME280;39569;51.090;-1.786;2024-03-02T04:24:54;97858.41;;;11.98;52.36
53246;BME280;39569;51.090;-1.786;2024-03-02T04:27:21;97857.22;;;12.15;51.61
53246;BME280;39569;51.090;-1.786;2024-03-02T04:29:47;97855.59;;;12.14;51.44
53246;BME280;39569;51.090;-1.786;2024-03-02T04:32:15;97857.78;;;12.22;51.67
53246;BME280;39569;51.090;-1.786;2024-03-02T04:34:41;97865.19;;;12.10;52.56
53246;BME280;39569;51.090;-1.786;2024-03-02T04:37:08;97866.53;;;12.13;52.92
53246;BME280;39569;51.090;-1.786;2024-03-02T04:39:36;97866.69;;;12.64;52.34
53246;BME280;39569;51.090;-1.786;2024-03-02T04:42:02;97859.22;;;12.35;53.05
53246;BME280;39569;51.090;-1.786;2024-03-02T04:44:29;97858.59;;;12.54;52.79
53246;BME280;39569;51.090;-1.786;2024-03-02T04:46:56;97859.59;;;12.43;53.43
53246;BME280;39569;51.090;-1.786;2024-03-02T04:49:23;97870.06;;;12.18;54.15
53246;BME280;39569;51.090;-1.786;2024-03-02T04:51:50;97874.44;;;11.98;55.50
53246;BME280;39569;51.090;-1.786;2024-03-02T04:54:16;97871.63;;;12.46;54.82
53246;BME280;39569;51.090;-1.786;2024-03-02T04:56:44;97869.66;;;13.05;53.36
53246;BME280;39569;51.090;-1.786;2024-03-02T04:59:15;97877.44;;;13.06;53.32
53246;BME280;39569;51.090;-1.786;2024-03-02T05:01:42;97882.84;;;12.11;54.83
53246;BME280;39569;51.090;-1.786;2024-03-02T05:04:09;97884.22;;;11.87;55.42
53246;BME280;39569;51.090;-1.786;2024-03-02T05:06:37;97886.22;;;11.53;56.41
53246;BME280;39569;51.090;-1.786;2024-03-02T05:09:05;97894.31;;;12.07;55.13
53246;BME280;39569;51.090;-1.786;2024-03-02T05:11:31;97895.94;;;12.08;55.54
53246;BME280;39569;51.090;-1.786;2024-03-02T05:14:26;97907.38;;;11.76;55.88
53246;BME280;39569;51.090;-1.786;2024-03-02T05:16:52;97912.13;;;11.69;55.73
53246;BME280;39569;51.090;-1.786;2024-03-02T05:19:19;97919.56;;;11.08;56.75
53246;BME280;39569;51.090;-1.786;2024-03-02T05:21:46;97926.41;;;11.58;55.55
53246;BME280;39569;51.090;-1.786;2024-03-02T05:24:12;97930.13;;;11.36;55.30
53246;BME280;39569;51.090;-1.786;2024-03-02T05:26:39;97950.72;;;9.91;58.99
53246;BME280;39569;51.090;-1.786;2024-03-02T05:29:06;97955.44;;;10.29;58.65
53246;BME280;39569;51.090;-1.786;2024-03-02T05:31:34;97943.13;;;11.49;55.71
53246;BME280;39569;51.090;-1.786;2024-03-02T05:34:00;97959.34;;;10.54;57.07
53246;BME280;39569;51.090;-1.786;2024-03-02T05:36:28;97963.25;;;9.51;59.06
53246;BME280;39569;51.090;-1.786;2024-03-02T05:38:54;97965.00;;;9.34;58.49
53246;BME280;39569;51.090;-1.786;2024-03-02T05:41:21;97975.66;;;9.85;58.10
53246;BME280;39569;51.090;-1.786;2024-03-02T05:43:48;97982.78;;;10.52;55.52
53246;BME280;39569;51.090;-1.786;2024-03-02T05:46:15;97980.06;;;10.64;54.58
53246;BME280;39569;51.090;-1.786;2024-03-02T05:48:43;97994.28;;;8.76;59.58
53246;BME280;39569;51.090;-1.786;2024-03-02T05:51:09;97995.13;;;9.34;57.60
53246;BME280;39569;51.090;-1.786;2024-03-02T05:53:36;98008.34;;;9.06;58.22
53246;BME280;39569;51.090;-1.786;2024-03-02T05:56:04;98009.81;;;10.00;55.93
53246;BME280;39569;51.090;-1.786;2024-03-02T05:58:31;98009.06;;;9.76;55.27
53246;BME280;39569;51.090;-1.786;2024-03-02T06:01:11;98021.53;;;9.36;57.33
53246;BME280;39569;51.090;-1.786;2024-03-02T06:03:38;98032.41;;;9.34;56.34
53246;BME280;39569;51.090;-1.786;2024-03-02T06:06:06;98038.78;;;9.22;56.59
53246;BME280;39569;51.090;-1.786;2024-03-02T06:08:33;98057.06;;;9.07;56.67
53246;BME280;39569;51.090;-1.786;2024-03-02T06:11:00;98047.47;;;9.29;56.19
53246;BME280;39569;51.090;-1.786;2024-03-02T06:13:27;98059.47;;;8.44;57.68
53246;BME280;39569;51.090;-1.786;2024-03-02T06:15:54;98055.03;;;7.90;59.41
53246;BME280;39569;51.090;-1.786;2024-03-02T06:18:20;98055.66;;;8.81;56.53
53246;BME280;39569;51.090;-1.786;2024-03-02T06:20:47;98063.94;;;8.32;58.12
53246;BME280;39569;51.090;-1.786;2024-03-02T06:23:15;98069.00;;;8.33;57.53
53246;BME280;39569;51.090;-1.786;2024-03-02T06:25:42;98061.56;;;8.83;56.57
53246;BME280;39569;51.090;-1.786;2024-03-02T06:28:09;98059.25;;;9.10;55.82
53246;BME280;39569;51.090;-1.786;2024-03-02T06:30:35;98061.44;;;8.48;57.06
53246;BME280;39569;51.090;-1.786;2024-03-02T06:33:02;98066.41;;;8.45;57.97
53246;BME280;39569;51.090;-1.786;2024-03-02T06:35:30;98073.03;;;7.88;58.65
53246;BME280;39569;51.090;-1.786;2024-03-02T06:37:57;98080.69;;;8.62;57.52
53246;BME280;39569;51.090;-1.786;2024-03-02T06:40:25;98077.97;;;8.03;57.42
53246;BME280;39569;51.090;-1.786;2024-03-02T06:42:52;98090.00;;;7.87;58.90
53246;BME280;39569;51.090;-1.786;2024-03-02T06:45:19;98092.34;;;8.49;57.82
53246;BME280;39569;51.090;-1.786;2024-03-02T06:47:45;98088.88;;;8.90;56.25
53246;BME280;39569;51.090;-1.786;2024-03-02T06:50:12;98089.38;;;9.45;54.44
53246;BME280;39569;51.090;-1.786;2024-03-02T06:52:39;98090.66;;;9.19;55.43
53246;BME280;39569;51.090;-1.786;2024-03-02T06:55:06;98093.56;;;9.29;55.40
53246;BME280;39569;51.090;-1.786;2024-03-02T06:57:34;98102.22;;;9.25;55.58
53246;BME280;39569;51.090;-1.786;2024-03-02T07:00:01;98110.13;;;9.54;54.38
53246;BME280;39569;51.090;-1.786;2024-03-02T07:02:30;98110.56;;;9.86;53.72
53246;BME280;39569;51.090;-1.786;2024-03-02T07:04:57;98113.09;;;10.16;53.50
53246;BME280;39569;51.090;-1.786;2024-03-02T07:07:24;98126.31;;;9.87;53.51
53246;BME280;39569;51.090;-1.786;2024-03-02T07:09:51;98123.16;;;10.02;53.43
53246;BME280;39569;51.090;-1.786;2024-03-02T07:12:17;98127.69;;;10.25;52.86
53246;BME280;39569;51.090;-1.786;2024-03-02T07:14:45;98132.19;;;10.64;52.44
53246;BME280;39569;51.090;-1.786;2024-03-02T07:17:38;98140.53;;;10.28;52.64
53246;BME280;39569;51.090;-1.786;2024-03-02T07:20:06;98156.69;;;9.75;53.75
53246;BME280;39569;51.090;-1.786;2024-03-02T07:22:33;98157.84;;;9.33;54.80
53246;BME280;39569;51.090;-1.786;2024-03-02T07:25:00;98160.28;;;9.80;53.84
53246;BME280;39569;51.090;-1.786;2024-03-02T07:27:26;98158.66;;;9.56;54.20
53246;BME280;39569;51.090;-1.786;2024-03-02T07:29:54;98164.22;;;9.89;54.02
53246;BME280;39569;51.090;-1.786;2024-03-02T07:32:21;98159.38;;;10.10;52.59
53246;BME280;39569;51.090;-1.786;2024-03-02T07:34:48;98163.06;;;9.97;53.46
53246;BME280;39569;51.090;-1.786;2024-03-02T07:37:16;98158.03;;;10.75;51.88
53246;BME280;39569;51.090;-1.786;2024-03-02T07:39:44;98160.19;;;10.50;52.12
53246;BME280;39569;51.090;-1.786;2024-03-02T07:42:11;98161.84;;;10.79;51.01
53246;BME280;39569;51.090;-1.786;2024-03-02T07:44:37;98171.56;;;10.85;51.74
53246;BME280;39569;51.090;-1.786;2024-03-02T07:47:06;98175.38;;;10.61;52.12
53246;BME280;39569;51.090;-1.786;2024-03-02T07:49:33;98170.25;;;10.99;51.68
53246;BME280;39569;51.090;-1.786;2024-03-02T07:52:00;98179.16;;;11.05;51.39
53246;BME280;39569;51.090;-1.786;2024-03-02T07:54:27;98176.19;;;11.18;50.87
53246;BME280;39569;51.090;-1.786;2024-03-02T07:56:53;98174.41;;;11.23;50.46
53246;BME280;39569;51.090;-1.786;2024-03-02T07:59:20;98176.00;;;11.24;50.86
53246;BME280;39569;51.090;-1.786;2024-03-02T08:01:49;98181.63;;;11.39;50.94
53246;BME280;39569;51.090;-1.786;2024-03-02T08:04:17;98175.53;;;11.11;52.00
53246;BME280;39569;51.090;-1.786;2024-03-02T08:06:45;98181.41;;;11.13;51.77
53246;BME280;39569;51.090;-1.786;2024-03-02T08:09:12;98188.91;;;11.27;51.69
53246;BME280;39569;51.090;-1.786;2024-03-02T08:11:39;98191.19;;;11.07;51.95
53246;BME280;39569;51.090;-1.786;2024-03-02T08:14:06;98195.19;;;10.65;52.52
53246;BME280;39569;51.090;-1.786;2024-03-02T08:16:33;98205.28;;;10.74;52.95
53246;BME280;39569;51.090;-1.786;2024-03-02T08:18:59;98196.53;;;11.07;52.01
53246;BME280;39569;51.090;-1.786;2024-03-02T08:21:28;98204.28;;;10.92;52.54
53246;BME280;39569;51.090;-1.786;2024-03-02T08:23:56;98214.34;;;11.02;52.46
53246;BME280;39569;51.090;-1.786;2024-03-02T08:26:23;98221.44;;;10.96;52.48
53246;BME280;39569;51.090;-1.786;2024-03-02T08:28:50;98223.78;;;11.21;52.04
53246;BME280;39569;51.090;-1.786;2024-03-02T08:31:17;98220.59;;;11.52;51.28
53246;BME280;39569;51.090;-1.786;2024-03-02T08:33:43;98217.59;;;11.48;51.82
53246;BME280;39569;51.090;-1.786;2024-03-02T08:36:09;98224.53;;;11.33;52.03
53246;BME280;39569;51.090;-1.786;2024-03-02T08:38:38;98225.81;;;11.92;51.32
53246;BME280;39569;51.090;-1.786;2024-03-02T08:41:04;98235.78;;;11.79;51.01
53246;BME280;39569;51.090;-1.786;2024-03-02T08:43:31;98229.28;;;11.75;51.26
53246;BME280;39569;51.090;-1.786;2024-03-02T08:45:58;98230.19;;;11.98;50.61
53246;BME280;39569;51.090;-1.786;2024-03-02T08:48:25;98224.00;;;12.30;50.01
53246;BME280;39569;51.090;-1.786;2024-03-02T08:50:51;98234.41;;;12.70;49.23
53246;BME280;39569;51.090;-1.786;2024-03-02T08:53:18;98232.50;;;12.65;49.75
53246;BME280;39569;51.090;-1.786;2024-03-02T08:55:46;98238.34;;;12.84;50.03
53246;BME280;39569;51.090;-1.786;2024-03-02T08:58:13;98231.56;;;12.55;49.94
53246;BME280;39569;51.090;-1.786;2024-03-02T09:00:40;98243.81;;;12.72;49.73
53246;BME280;39569;51.090;-1.786;2024-03-02T09:03:08;98253.69;;;12.29;50.12
53246;BME280;39569;51.090;-1.786;2024-03-02T09:05:35;98252.81;;;12.45;50.21
53246;BME280;39569;51.090;-1.786;2024-03-02T09:08:02;98256.38;;;12.50;50.45
53246;BME280;39569;51.090;-1.786;2024-03-02T09:10:29;98262.63;;;12.18;51.37
53246;BME280;39569;51.090;-1.786;2024-03-02T09:12:58;98264.47;;;12.55;51.28
53246;BME280;39569;51.090;-1.786;2024-03-02T09:15:25;98265.75;;;11.81;51.64
53246;BME280;39569;51.090;-1.786;2024-03-02T09:17:51;98267.81;;;12.62;50.87
53246;BME280;39569;51.090;-1.786;2024-03-02T09:20:18;98269.59;;;13.00;50.11
53246;BME280;39569;51.090;-1.786;2024-03-02T09:22:45;98267.38;;;12.92;50.29
53246;BME280;39569;51.090;-1.786;2024-03-02T09:25:13;98267.34;;;13.09;49.72
53246;BME280;39569;51.090;-1.786;2024-03-02T09:27:39;98277.94;;;11.89;52.31
53246;BME280;39569;51.090;-1.786;2024-03-02T09:30:09;98274.59;;;12.92;50.77
53246;BME280;39569;51.090;-1.786;2024-03-02T09:32:37;98283.16;;;12.50;51.55
53246;BME280;39569;51.090;-1.786;2024-03-02T09:35:04;98283.75;;;12.74;51.17
53246;BME280;39569;51.090;-1.786;2024-03-02T09:37:30;98287.03;;;12.81;50.63
53246;BME280;39569;51.090;-1.786;2024-03-02T09:39:57;98288.13;;;12.42;51.14
53246;BME280;39569;51.090;-1.786;2024-03-02T09:42:24;98291.88;;;12.79;50.99
53246;BME280;39569;51.090;-1.786;2024-03-02T09:44:52;98285.94;;;12.77;51.00
53246;BME280;39569;51.090;-1.786;2024-03-02T09:47:20;98285.78;;;13.05;51.51
53246;BME280;39569;51.090;-1.786;2024-03-02T09:49:47;98292.66;;;13.44;50.17
53246;BME280;39569;51.090;-1.786;2024-03-02T09:52:14;98299.50;;;12.70;51.10
53246;BME280;39569;51.090;-1.786;2024-03-02T09:54:41;98288.06;;;12.75;51.57
53246;BME280;39569;51.090;-1.786;2024-03-02T09:57:09;98297.31;;;13.54;50.02
53246;BME280;39569;51.090;-1.786;2024-03-02T09:59:36;98298.81;;;13.02;51.16
53246;BME280;39569;51.090;-1.786;2024-03-02T10:02:03;98313.72;;;11.43;54.06
53246;BME280;39569;51.090;-1.786;2024-03-02T10:04:34;98308.91;;;12.73;51.95
53246;BME280;39569;51.090;-1.786;2024-03-02T10:07:10;98305.09;;;12.31;52.52
53246;BME280;39569;51.090;-1.786;2024-03-02T10:09:37;98312.06;;;12.70;51.24
53246;BME280;39569;51.090;-1.786;2024-03-02T10:12:05;98314.44;;;12.66;51.97
53246;BME280;39569;51.090;-1.786;2024-03-02T10:14:32;98316.03;;;11.96;52.36
53246;BME280;39569;51.090;-1.786;2024-03-02T10:17:02;98320.59;;;12.29;52.74
53246;BME280;39569;51.090;-1.786;2024-03-02T10:19:30;98341.25;;;11.04;53.42
53246;BME280;39569;51.090;-1.786;2024-03-02T10:21:59;98331.75;;;12.09;53.18
53246;BME280;39569;51.090;-1.786;2024-03-02T10:24:28;98327.28;;;11.98;52.62
53246;BME280;39569;51.090;-1.786;2024-03-02T10:27:01;98334.91;;;11.61;52.61
53246;BME280;39569;51.090;-1.786;2024-03-02T10:29:29;98328.94;;;12.16;52.31
53246;BME280;39569;51.090;-1.786;2024-03-02T10:31:56;98337.19;;;12.64;50.47
53246;BME280;39569;51.090;-1.786;2024-03-02T10:34:24;98330.69;;;12.60;50.43
53246;BME280;39569;51.090;-1.786;2024-03-02T10:36:51;98326.50;;;12.14;51.93
53246;BME280;39569;51.090;-1.786;2024-03-02T10:39:19;98325.66;;;12.63;51.78
53246;BME280;39569;51.090;-1.786;2024-03-02T10:41:49;98329.66;;;13.69;49.24
53246;BME280;39569;51.090;-1.786;2024-03-02T10:44:18;98328.84;;;13.95;49.13
53246;BME280;39569;51.090;-1.786;2024-03-02T10:46:47;98334.78;;;13.97;48.43
53246;BME280;39569;51.090;-1.786;2024-03-02T10:49:13;98349.31;;;12.88;50.23
53246;BME280;39569;51.090;-1.786;2024-03-02T10:51:40;98344.94;;;12.82;50.21
53246;BME280;39569;51.090;-1.786;2024-03-02T10:54:08;98351.81;;;13.59;49.15
53246;BME280;39569;51.090;-1.786;2024-03-02T10:56:40;98352.28;;;14.05;48.31
53246;BME280;39569;51.090;-1.786;2024-03-02T10:59:16;98354.47;;;14.39;47.84
53246;BME280;39569;51.090;-1.786;2024-03-02T11:01:47;98364.59;;;13.74;47.83
53246;BME280;39569;51.090;-1.786;2024-03-02T11:04:16;98374.31;;;14.07;48.94
53246;BME280;39569;51.090;-1.786;2024-03-02T11:06:47;98368.69;;;12.57;49.32
53246;BME280;39569;51.090;-1.786;2024-03-02T11:09:15;98365.78;;;12.80;49.78
53246;BME280;39569;51.090;-1.786;2024-03-02T11:11:45;98371.84;;;13.52;48.13
53246;BME280;39569;51.090;-1.786;2024-03-02T11:14:17;98384.00;;;13.00;48.96
53246;BME280;39569;51.090;-1.786;2024-03-02T11:16:44;98385.38;;;13.40;49.58
53246;BME280;39569;51.090;-1.786;2024-03-02T11:19:12;98391.28;;;13.86;48.51
53246;BME280;39569;51.090;-1.786;2024-03-02T11:21:39;98395.00;;;13.36;48.95
53246;BME280;39569;51.090;-1.786;2024-03-02T11:24:32;98402.59;;;13.23;49.30
53246;BME280;39569;51.090;-1.786;2024-03-02T11:27:02;98391.56;;;13.62;48.31
53246;BME280;39569;51.090;-1.786;2024-03-02T11:29:45;98401.25;;;13.04;49.02
53246;BME280;39569;51.090;-1.786;2024-03-02T11:32:17;98400.16;;;13.43;48.63
53246;BME280;39569;51.090;-1.786;2024-03-02T11:34:45;98406.81;;;13.19;49.71
53246;BME280;39569;51.090;-1.786;2024-03-02T11:37:13;98405.25;;;13.88;48.77
53246;BME280;39569;51.090;-1.786;2024-03-02T11:39:42;98404.16;;;13.62;49.22
53246;BME280;39569;51.090;-1.786;2024-03-02T11:42:11;98406.03;;;13.61;49.33
53246;BME280;39569;51.090;-1.786;2024-03-02T11:44:42;98404.41;;;14.09;49.57
53246;BME280;39569;51.090;-1.786;2024-03-02T11:47:12;98401.50;;;15.20;47.24
53246;BME280;39569;51.090;-1.786;2024-03-02T11:49:41;98400.81;;;16.12;43.76
53246;BME280;39569;51.090;-1.786;2024-03-02T11:52:10;98402.25;;;14.11;46.63
53246;BME280;39569;51.090;-1.786;2024-03-02T11:54:38;98402.91;;;15.33;45.42
53246;BME280;39569;51.090;-1.786;2024-03-02T11:57:07;98410.06;;;15.59;44.81
53246;BME280;39569;51.090;-1.786;2024-03-02T11:59:35;98413.34;;;14.19;47.60
53246;BME280;39569;51.090;-1.786;2024-03-02T12:02:02;98412.81;;;12.71;50.79
53246;BME280;39569;51.090;-1.786;2024-03-02T12:04:29;98416.53;;;12.70;50.54
53246;BME280;39569;51.090;-1.786;2024-03-02T12:06:58;98419.44;;;12.19;51.64
53246;BME280;39569;51.090;-1.786;2024-03-02T12:09:28;98419.69;;;12.67;50.42
53246;BME280;39569;51.090;-1.786;2024-03-02T12:12:05;98418.94;;;13.21;49.75
53246;BME280;39569;51.090;-1.786;2024-03-02T12:14:33;98420.44;;;13.34;50.48
53246;BME280;39569;51.090;-1.786;2024-03-02T12:17:01;98413.63;;;13.26;50.55
53246;BME280;39569;51.090;-1.786;2024-03-02T12:19:29;98426.00;;;13.49;48.89
53246;BME280;39569;51.090;-1.786;2024-03-02T12:21:56;98414.91;;;13.89;48.04
53246;BME280;39569;51.090;-1.786;2024-03-02T12:24:24;98428.28;;;12.85;50.51
53246;BME280;39569;51.090;-1.786;2024-03-02T12:26:51;98425.41;;;14.17;47.91
53246;BME280;39569;51.090;-1.786;2024-03-02T12:29:19;98419.50;;;15.61;43.96
53246;BME280;39569;51.090;-1.786;2024-03-02T12:31:47;98415.78;;;15.21;46.52
53246;BME280;39569;51.090;-1.786;2024-03-02T12:34:17;98410.78;;;14.61;48.01
53246;BME280;39569;51.090;-1.786;2024-03-02T12:36:44;98414.31;;;14.35;46.69
53246;BME280;39569;51.090;-1.786;2024-03-02T12:39:13;98415.63;;;13.57;48.16
53246;BME280;39569;51.090;-1.786;2024-03-02T12:41:41;98416.13;;;14.56;47.11
53246;BME280;39569;51.090;-1.786;2024-03-02T12:44:08;98419.59;;;14.25;46.65
53246;BME280;39569;51.090;-1.786;2024-03-02T12:46:35;98414.53;;;14.97;45.15
53246;BME280;39569;51.090;-1.786;2024-03-02T12:49:07;98416.38;;;15.90;43.98
53246;BME280;39569;51.090;-1.786;2024-03-02T12:51:36;98416.94;;;14.93;45.36
53246;BME280;39569;51.090;-1.786;2024-03-02T12:54:03;98412.47;;;13.87;46.09